sensor_id;sensor_type;location;lat;lon;timestamp;P1;durP1;ratioP1;P2;durP2;ratioP2
75554;SDS011;66087;53.126;17.960;2023-03-14T00:01:19;6.10;;;2.30;;
75554;SDS011;66087;53.126;17.960;2023-03-14T00:03:46;5.80;;;2.60;;
75554;SDS011;66087;53.126;17.960;2023-03-14T00:06:13;5.40;;;2.60;;
75554;SDS011;66087;53.126;17.960;2023-03-14T00:08:41;7.60;;;3.10;;
75554;SDS011;66087;53.126;17.960;2023-03-14T00:11:10;6.30;;;2.90;;
75554;SDS011;66087;53.126;17.960;2023-03-14T00:13:38;5.00;;;2.40;;
75554;SDS011;66087;53.126;17.960;2023-03-14T00:16:07;7.80;;;2.20;;
75554;SDS011;66087;53.126;17.960;2023-03-14T00:18:37;5.00;;;1.90;;
75554;SDS011;66087;53.126;17.960;2023-03-14T00:21:05;5.30;;;2.40;;
75554;SDS011;66087;53.126;17.960;2023-03-14T00:23:34;5.40;;;1.80;;
75554;SDS011;66087;53.126;17.960;2023-03-14T00:26:05;5.50;;;2.50;;
75554;SDS011;66087;53.126;17.960;2023-03-14T00:28:35;6.20;;;2.40;;
75554;SDS011;66087;53.126;17.960;2023-03-14T00:31:02;5.70;;;2.30;;
75554;SDS011;66087;53.126;17.960;2023-03-14T00:33:34;5.30;;;2.00;;
75554;SDS011;66087;53.126;17.960;2023-03-14T00:36:04;6.80;;;2.30;;
75554;SDS011;66087;53.126;17.960;2023-03-14T00:38:33;5.90;;;2.30;;
75554;SDS011;66087;53.126;17.960;2023-03-14T00:41:03;5.80;;;2.30;;
75554;SDS011;66087;53.126;17.960;2023-03-14T00:43:31;7.30;;;2.40;;
75554;SDS011;66087;53.126;17.960;2023-03-14T00:45:58;6.70;;;2.60;;
75554;SDS011;66087;53.126;17.960;2023-03-14T00:48:27;6.20;;;2.40;;
75554;SDS011;66087;53.126;17.960;2023-03-14T00:50:54;8.90;;;2.60;;
75554;SDS011;66087;53.126;17.960;2023-03-14T00:53:20;5.10;;;2.90;;
75554;SDS011;66087;53.126;17.960;2023-03-14T00:55:48;5.10;;;2.40;;
75554;SDS011;66087;53.126;17.960;2023-03-14T00:58:15;5.00;;;1.80;;
75554;SDS011;66087;53.126;17.960;2023-03-14T01:00:43;5.30;;;1.70;;
75554;SDS011;66087;53.126;17.960;2023-03-14T01:03:12;5.10;;;2.50;;
75554;SDS011;66087;53.126;17.960;2023-03-14T01:05:40;4.30;;;1.80;;
75554;SDS011;66087;53.126;17.960;2023-03-14T01:08:08;5.80;;;2.00;;
75554;SDS011;66087;53.126;17.960;2023-03-14T01:10:39;5.20;;;1.90;;
75554;SDS011;66087;53.126;17.960;2023-03-14T01:13:07;3.00;;;1.10;;
75554;SDS011;66087;53.126;17.960;2023-03-14T01:15:36;4.20;;;1.60;;
75554;SDS011;66087;53.126;17.960;2023-03-14T01:18:04;6.10;;;2.30;;
75554;SDS011;66087;53.126;17.960;2023-03-14T01:20:31;4.80;;;2.00;;
75554;SDS011;66087;53.126;17.960;2023-03-14T01:22:58;4.40;;;1.50;;
75554;SDS011;66087;53.126;17.960;2023-03-14T01:25:26;4.30;;;1.80;;
75554;SDS011;66087;53.126;17.960;2023-03-14T01:27:53;3.80;;;1.80;;
75554;SDS011;66087;53.126;17.960;2023-03-14T01:30:20;3.90;;;1.60;;
75554;SDS011;66087;53.126;17.960;2023-03-14T01:32:46;4.70;;;1.80;;
75554;SDS011;66087;53.126;17.960;2023-03-14T01:35:13;5.70;;;1.60;;
75554;SDS011;66087;53.126;17.960;2023-03-14T01:37:40;4.80;;;1.80;;
75554;SDS011;66087;53.126;17.960;2023-03-14T01:40:10;4.70;;;2.00;;
75554;SDS011;66087;53.126;17.960;2023-03-14T01:42:43;5.70;;;2.00;;
75554;SDS011;66087;53.126;17.960;2023-03-14T01:48:08;4.40;;;1.50;;
75554;SDS011;66087;53.126;17.960;2023-03-14T01:50:34;4.10;;;1.50;;
75554;SDS011;66087;53.126;17.960;2023-03-14T01:53:01;5.40;;;1.90;;
75554;SDS011;66087;53.126;17.960;2023-03-14T01:55:28;5.10;;;1.90;;
75554;SDS011;66087;53.126;17.960;2023-03-14T01:57:59;5.60;;;1.80;;
75554;SDS011;66087;53.126;17.960;2023-03-14T02:00:31;4.80;;;1.70;;
75554;SDS011;66087;53.126;17.960;2023-03-14T02:03:17;4.80;;;1.30;;
75554;SDS011;66087;53.126;17.960;2023-03-14T02:05:47;4.50;;;1.70;;
75554;SDS011;66087;53.126;17.960;2023-03-14T02:08:36;4.40;;;1.40;;
75554;SDS011;66087;53.126;17.960;2023-03-14T02:11:08;5.70;;;1.50;;
75554;SDS011;66087;53.126;17.960;2023-03-14T02:13:47;5.60;;;1.90;;
75554;SDS011;66087;53.126;17.960;2023-03-14T02:16:24;3.80;;;1.50;;
75554;SDS011;66087;53.126;17.960;2023-03-14T02:19:01;4.70;;;2.00;;
75554;SDS011;66087;53.126;17.960;2023-03-14T02:21:47;4.50;;;1.70;;
75554;SDS011;66087;53.126;17.960;2023-03-14T02:24:28;3.40;;;1.40;;
75554;SDS011;66087;53.126;17.960;2023-03-14T02:27:10;4.20;;;1.40;;
75554;SDS011;66087;53.126;17.960;2023-03-14T02:29:45;4.20;;;1.40;;
75554;SDS011;66087;53.126;17.960;2023-03-14T02:32:25;3.30;;;1.40;;
75554;SDS011;66087;53.126;17.960;2023-03-14T02:34:54;4.70;;;1.50;;
75554;SDS011;66087;53.126;17.960;2023-03-14T02:37:25;4.40;;;1.60;;
75554;SDS011;66087;53.126;17.960;2023-03-14T02:39:59;4.60;;;1.40;;
75554;SDS011;66087;53.126;17.960;2023-03-14T02:42:26;5.00;;;1.40;;
75554;SDS011;66087;53.126;17.960;2023-03-14T02:44:54;4.40;;;1.30;;
75554;SDS011;66087;53.126;17.960;2023-03-14T02:47:28;4.10;;;1.40;;
75554;SDS011;66087;53.126;17.960;2023-03-14T02:49:59;3.10;;;1.20;;
75554;SDS011;66087;53.126;17.960;2023-03-14T02:52:33;3.60;;;1.20;;
75554;SDS011;66087;53.126;17.960;2023-03-14T02:55:01;2.30;;;0.70;;
75554;SDS011;66087;53.126;17.960;2023-03-14T02:57:28;4.40;;;1.40;;
75554;SDS011;66087;53.126;17.960;2023-03-14T02:59:58;2.50;;;1.10;;
75554;SDS011;66087;53.126;17.960;2023-03-14T03:02:27;4.10;;;0.90;;
75554;SDS011;66087;53.126;17.960;2023-03-14T03:04:54;2.40;;;1.00;;
75554;SDS011;66087;53.126;17.960;2023-03-14T03:07:21;1.90;;;0.80;;
75554;SDS011;66087;53.126;17.960;2023-03-14T03:09:48;4.00;;;1.00;;
75554;SDS011;66087;53.126;17.960;2023-03-14T03:12:18;2.10;;;0.80;;
75554;SDS011;66087;53.126;17.960;2023-03-14T03:15:07;3.40;;;1.00;;
75554;SDS011;66087;53.126;17.960;2023-03-14T03:17:35;5.60;;;2.00;;
75554;SDS011;66087;53.126;17.960;2023-03-14T03:20:03;2.20;;;0.80;;
75554;SDS011;66087;53.126;17.960;2023-03-14T03:22:32;3.20;;;1.30;;
75554;SDS011;66087;53.126;17.960;2023-03-14T03:25:01;2.30;;;1.00;;
75554;SDS011;66087;53.126;17.960;2023-03-14T03:27:30;1.60;;;0.70;;
75554;SDS011;66087;53.126;17.960;2023-03-14T03:30:00;2.20;;;0.70;;
75554;SDS011;66087;53.126;17.960;2023-03-14T03:32:30;2.40;;;0.80;;
75554;SDS011;66087;53.126;17.960;2023-03-14T03:34:57;1.90;;;0.80;;
75554;SDS011;66087;53.126;17.960;2023-03-14T03:37:24;2.90;;;0.70;;
75554;SDS011;66087;53.126;17.960;2023-03-14T03:39:51;1.70;;;0.50;;
75554;SDS011;66087;53.126;17.960;2023-03-14T03:42:18;3.30;;;0.70;;
75554;SDS011;66087;53.126;17.960;2023-03-14T03:44:45;2.10;;;0.80;;
75554;SDS011;66087;53.126;17.960;2023-03-14T03:47:12;2.50;;;1.00;;
75554;SDS011;66087;53.126;17.960;2023-03-14T03:49:39;2.90;;;0.80;;
75554;SDS011;66087;53.126;17.960;2023-03-14T03:52:08;2.70;;;1.00;;
75554;SDS011;66087;53.126;17.960;2023-03-14T03:54:35;1.20;;;0.50;;
75554;SDS011;66087;53.126;17.960;2023-03-14T03:57:02;3.60;;;1.10;;
75554;SDS011;66087;53.126;17.960;2023-03-14T03:59:29;2.10;;;0.90;;
75554;SDS011;66087;53.126;17.960;2023-03-14T04:01:56;3.10;;;0.80;;
75554;SDS011;66087;53.126;17.960;2023-03-14T04:04:23;4.40;;;1.00;;
75554;SDS011;66087;53.126;17.960;2023-03-14T04:06:50;2.70;;;1.30;;
75554;SDS011;66087;53.126;17.960;2023-03-14T04:09:16;2.00;;;0.60;;
75554;SDS011;66087;53.126;17.960;2023-03-14T04:11:46;3.00;;;1.10;;
75554;SDS011;66087;53.126;17.960;2023-03-14T04:14:33;4.10;;;1.50;;
75554;SDS011;66087;53.126;17.960;2023-03-14T04:17:10;2.10;;;0.80;;
75554;SDS011;66087;53.126;17.960;2023-03-14T04:19:37;2.40;;;0.80;;
75554;SDS011;66087;53.126;17.960;2023-03-14T04:22:04;2.10;;;1.20;;
75554;SDS011;66087;53.126;17.960;2023-03-14T04:24:35;3.10;;;1.10;;
75554;SDS011;66087;53.126;17.960;2023-03-14T04:27:02;2.90;;;1.00;;
75554;SDS011;66087;53.126;17.960;2023-03-14T04:29:29;3.20;;;1.10;;
75554;SDS011;66087;53.126;17.960;2023-03-14T04:31:56;2.70;;;1.00;;
75554;SDS011;66087;53.126;17.960;2023-03-14T04:34:22;4.40;;;1.30;;
75554;SDS011;66087;53.126;17.960;2023-03-14T04:36:53;2.80;;;1.00;;
75554;SDS011;66087;53.126;17.960;2023-03-14T04:39:26;3.50;;;1.50;;
75554;SDS011;66087;53.126;17.960;2023-03-14T04:41:59;3.50;;;1.40;;
75554;SDS011;66087;53.126;17.960;2023-03-14T04:44:27;4.60;;;1.50;;
75554;SDS011;66087;53.126;17.960;2023-03-14T04:46:54;4.30;;;1.90;;
75554;SDS011;66087;53.126;17.960;2023-03-14T04:49:21;5.00;;;2.20;;
75554;SDS011;66087;53.126;17.960;2023-03-14T04:52:09;5.70;;;2.40;;
75554;SDS011;66087;53.126;17.960;2023-03-14T04:54:36;4.30;;;1.90;;
75554;SDS011;66087;53.126;17.960;2023-03-14T04:57:04;4.80;;;2.20;;
75554;SDS011;66087;53.126;17.960;2023-03-14T04:59:33;5.80;;;2.70;;
75554;SDS011;66087;53.126;17.960;2023-03-14T05:02:10;8.70;;;4.00;;
75554;SDS011;66087;53.126;17.960;2023-03-14T05:04:46;7.60;;;3.10;;
75554;SDS011;66087;53.126;17.960;2023-03-14T05:07:32;5.50;;;2.20;;
75554;SDS011;66087;53.126;17.960;2023-03-14T05:10:16;6.20;;;2.00;;
75554;SDS011;66087;53.126;17.960;2023-03-14T05:12:54;6.80;;;2.50;;
75554;SDS011;66087;53.126;17.960;2023-03-14T05:15:32;6.50;;;2.60;;
75554;SDS011;66087;53.126;17.960;2023-03-14T05:18:17;7.30;;;3.30;;
75554;SDS011;66087;53.126;17.960;2023-03-14T05:20:54;8.00;;;3.50;;
75554;SDS011;66087;53.126;17.960;2023-03-14T05:23:31;9.90;;;3.40;;
75554;SDS011;66087;53.126;17.960;2023-03-14T05:26:07;4.30;;;1.50;;
75554;SDS011;66087;53.126;17.960;2023-03-14T05:28:42;6.30;;;2.40;;
75554;SDS011;66087;53.126;17.960;2023-03-14T05:31:18;6.80;;;3.40;;
75554;SDS011;66087;53.126;17.960;2023-03-14T05:34:06;6.00;;;2.60;;
75554;SDS011;66087;53.126;17.960;2023-03-14T05:36:40;6.40;;;2.30;;
75554;SDS011;66087;53.126;17.960;2023-03-14T05:39:18;5.50;;;2.60;;
75554;SDS011;66087;53.126;17.960;2023-03-14T05:41:55;6.40;;;2.60;;
75554;SDS011;66087;53.126;17.960;2023-03-14T05:44:30;5.90;;;2.10;;
75554;SDS011;66087;53.126;17.960;2023-03-14T05:47:08;6.20;;;2.10;;
75554;SDS011;66087;53.126;17.960;2023-03-14T05:49:49;5.20;;;2.00;;
75554;SDS011;66087;53.126;17.960;2023-03-14T05:52:51;6.70;;;2.40;;
75554;SDS011;66087;53.126;17.960;2023-03-14T05:55:31;6.50;;;3.10;;
75554;SDS011;66087;53.126;17.960;2023-03-14T05:58:09;6.00;;;2.50;;
75554;SDS011;66087;53.126;17.960;2023-03-14T06:00:47;5.80;;;2.00;;
75554;SDS011;66087;53.126;17.960;2023-03-14T06:03:26;5.00;;;1.90;;
75554;SDS011;66087;53.126;17.960;2023-03-14T06:05:53;5.70;;;2.50;;
75554;SDS011;66087;53.126;17.960;2023-03-14T06:08:22;7.20;;;3.30;;
75554;SDS011;66087;53.126;17.960;2023-03-14T06:10:50;6.50;;;2.70;;
75554;SDS011;66087;53.126;17.960;2023-03-14T06:13:18;6.40;;;2.00;;
75554;SDS011;66087;53.126;17.960;2023-03-14T06:15:45;7.30;;;3.30;;
75554;SDS011;66087;53.126;17.960;2023-03-14T06:18:12;8.80;;;3.60;;
75554;SDS011;66087;53.126;17.960;2023-03-14T06:20:41;7.50;;;3.30;;
75554;SDS011;66087;53.126;17.960;2023-03-14T06:23:10;8.90;;;3.10;;
75554;SDS011;66087;53.126;17.960;2023-03-14T06:25:37;7.50;;;3.30;;
75554;SDS011;66087;53.126;17.960;2023-03-14T06:28:04;6.60;;;2.60;;
75554;SDS011;66087;53.126;17.960;2023-03-14T06:30:31;6.50;;;3.00;;
75554;SDS011;66087;53.126;17.960;2023-03-14T06:32:58;6.70;;;2.80;;
75554;SDS011;66087;53.126;17.960;2023-03-14T06:35:24;6.20;;;3.20;;
75554;SDS011;66087;53.126;17.960;2023-03-14T06:37:52;5.60;;;2.90;;
75554;SDS011;66087;53.126;17.960;2023-03-14T06:40:19;4.70;;;2.50;;
75554;SDS011;66087;53.126;17.960;2023-03-14T06:42:53;6.20;;;2.80;;
75554;SDS011;66087;53.126;17.960;2023-03-14T06:45:21;5.00;;;1.80;;
75554;SDS011;66087;53.126;17.960;2023-03-14T06:47:48;6.60;;;3.30;;
75554;SDS011;66087;53.126;17.960;2023-03-14T06:50:15;5.10;;;1.80;;
75554;SDS011;66087;53.126;17.960;2023-03-14T06:52:42;4.80;;;1.90;;
75554;SDS011;66087;53.126;17.960;2023-03-14T06:55:15;6.40;;;2.60;;
75554;SDS011;66087;53.126;17.960;2023-03-14T06:57:45;6.00;;;2.30;;
75554;SDS011;66087;53.126;17.960;2023-03-14T07:00:31;6.30;;;2.50;;
75554;SDS011;66087;53.126;17.960;2023-03-14T07:02:58;6.10;;;1.90;;
75554;SDS011;66087;53.126;17.960;2023-03-14T07:05:29;5.80;;;2.60;;
75554;SDS011;66087;53.126;17.960;2023-03-14T07:07:56;5.80;;;2.20;;
75554;SDS011;66087;53.126;17.960;2023-03-14T07:10:23;6.00;;;2.10;;
75554;SDS011;66087;53.126;17.960;2023-03-14T07:12:50;4.40;;;1.90;;
75554;SDS011;66087;53.126;17.960;2023-03-14T07:15:19;4.40;;;2.00;;
75554;SDS011;66087;53.126;17.960;2023-03-14T07:17:50;6.50;;;3.20;;
75554;SDS011;66087;53.126;17.960;2023-03-14T07:20:18;7.20;;;3.90;;
75554;SDS011;66087;53.126;17.960;2023-03-14T07:22:48;7.30;;;3.00;;
75554;SDS011;66087;53.126;17.960;2023-03-14T07:25:16;10.00;;;4.50;;
75554;SDS011;66087;53.126;17.960;2023-03-14T07:27:44;8.90;;;3.50;;
75554;SDS011;66087;53.126;17.960;2023-03-14T07:30:11;6.10;;;2.20;;
75554;SDS011;66087;53.126;17.960;2023-03-14T07:32:39;7.20;;;2.90;;
75554;SDS011;66087;53.126;17.960;2023-03-14T07:35:07;6.20;;;2.80;;
75554;SDS011;66087;53.126;17.960;2023-03-14T07:37:36;6.10;;;2.70;;
75554;SDS011;66087;53.126;17.960;2023-03-14T07:40:03;8.20;;;3.70;;
75554;SDS011;66087;53.126;17.960;2023-03-14T07:42:33;5.50;;;2.30;;
75554;SDS011;66087;53.126;17.960;2023-03-14T07:45:10;7.80;;;3.00;;
75554;SDS011;66087;53.126;17.960;2023-03-14T07:47:37;8.10;;;3.50;;
75554;SDS011;66087;53.126;17.960;2023-03-14T07:50:04;10.90;;;3.80;;
75554;SDS011;66087;53.126;17.960;2023-03-14T07:52:32;7.70;;;3.30;;
75554;SDS011;66087;53.126;17.960;2023-03-14T07:54:59;9.90;;;4.50;;
75554;SDS011;66087;53.126;17.960;2023-03-14T07:57:26;8.00;;;3.30;;
75554;SDS011;66087;53.126;17.960;2023-03-14T07:59:52;11.60;;;5.00;;
75554;SDS011;66087;53.126;17.960;2023-03-14T08:02:19;9.20;;;3.90;;
75554;SDS011;66087;53.126;17.960;2023-03-14T08:04:49;17.30;;;7.30;;
75554;SDS011;66087;53.126;17.960;2023-03-14T08:07:16;13.30;;;5.50;;
75554;SDS011;66087;53.126;17.960;2023-03-14T08:09:45;8.90;;;4.30;;
75554;SDS011;66087;53.126;17.960;2023-03-14T08:12:11;9.60;;;4.30;;
75554;SDS011;66087;53.126;17.960;2023-03-14T08:14:39;9.50;;;4.60;;
75554;SDS011;66087;53.126;17.960;2023-03-14T08:17:26;11.60;;;5.20;;
75554;SDS011;66087;53.126;17.960;2023-03-14T08:19:54;13.60;;;6.10;;
75554;SDS011;66087;53.126;17.960;2023-03-14T08:22:21;8.40;;;4.30;;
75554;SDS011;66087;53.126;17.960;2023-03-14T08:24:48;9.10;;;4.50;;
75554;SDS011;66087;53.126;17.960;2023-03-14T08:27:15;11.50;;;3.90;;
75554;SDS011;66087;53.126;17.960;2023-03-14T08:29:41;7.30;;;2.60;;
75554;SDS011;66087;53.126;17.960;2023-03-14T08:32:08;8.20;;;3.30;;
75554;SDS011;66087;53.126;17.960;2023-03-14T08:34:35;7.30;;;2.90;;
75554;SDS011;66087;53.126;17.960;2023-03-14T08:37:01;6.50;;;3.00;;
75554;SDS011;66087;53.126;17.960;2023-03-14T08:39:28;6.70;;;2.90;;
75554;SDS011;66087;53.126;17.960;2023-03-14T08:41:55;6.20;;;2.30;;
75554;SDS011;66087;53.126;17.960;2023-03-14T08:44:21;6.20;;;2.60;;
75554;SDS011;66087;53.126;17.960;2023-03-14T08:46:48;9.60;;;2.60;;
75554;SDS011;66087;53.126;17.960;2023-03-14T08:49:15;6.80;;;2.40;;
75554;SDS011;66087;53.126;17.960;2023-03-14T08:51:42;5.80;;;2.30;;
75554;SDS011;66087;53.126;17.960;2023-03-14T08:54:09;4.70;;;1.70;;
75554;SDS011;66087;53.126;17.960;2023-03-14T08:56:37;6.20;;;2.50;;
75554;SDS011;66087;53.126;17.960;2023-03-14T08:59:04;6.00;;;2.20;;
75554;SDS011;66087;53.126;17.960;2023-03-14T09:01:32;4.90;;;2.20;;
75554;SDS011;66087;53.126;17.960;2023-03-14T09:03:59;5.80;;;1.80;;
75554;SDS011;66087;53.126;17.960;2023-03-14T09:06:27;4.40;;;2.20;;
75554;SDS011;66087;53.126;17.960;2023-03-14T09:08:54;6.10;;;2.20;;
75554;SDS011;66087;53.126;17.960;2023-03-14T09:11:20;4.00;;;1.60;;
75554;SDS011;66087;53.126;17.960;2023-03-14T09:13:47;5.10;;;1.90;;
75554;SDS011;66087;53.126;17.960;2023-03-14T09:16:15;5.40;;;2.30;;
75554;SDS011;66087;53.126;17.960;2023-03-14T09:18:43;6.40;;;2.00;;
75554;SDS011;66087;53.126;17.960;2023-03-14T09:21:09;3.60;;;1.60;;
75554;SDS011;66087;53.126;17.960;2023-03-14T09:23:36;4.40;;;2.00;;
75554;SDS011;66087;53.126;17.960;2023-03-14T09:26:03;6.10;;;2.30;;
75554;SDS011;66087;53.126;17.960;2023-03-14T09:28:29;5.40;;;1.90;;
75554;SDS011;66087;53.126;17.960;2023-03-14T09:30:56;6.60;;;1.80;;
75554;SDS011;66087;53.126;17.960;2023-03-14T09:33:43;6.00;;;2.40;;
75554;SDS011;66087;53.126;17.960;2023-03-14T09:36:11;7.40;;;2.60;;
75554;SDS011;66087;53.126;17.960;2023-03-14T09:38:38;7.10;;;2.40;;
75554;SDS011;66087;53.126;17.960;2023-03-14T09:41:14;6.20;;;2.50;;
75554;SDS011;66087;53.126;17.960;2023-03-14T09:43:48;4.60;;;2.00;;
75554;SDS011;66087;53.126;17.960;2023-03-14T09:46:21;4.20;;;1.40;;
75554;SDS011;66087;53.126;17.960;2023-03-14T09:48:48;6.50;;;2.50;;
75554;SDS011;66087;53.126;17.960;2023-03-14T09:51:16;5.10;;;1.50;;
75554;SDS011;66087;53.126;17.960;2023-03-14T09:53:48;4.40;;;1.40;;
75554;SDS011;66087;53.126;17.960;2023-03-14T09:56:18;10.20;;;4.40;;
75554;SDS011;66087;53.126;17.960;2023-03-14T09:58:56;4.20;;;1.70;;
75554;SDS011;66087;53.126;17.960;2023-03-14T10:01:26;3.60;;;1.00;;
75554;SDS011;66087;53.126;17.960;2023-03-14T10:03:55;4.30;;;1.30;;
75554;SDS011;66087;53.126;17.960;2023-03-14T10:06:25;4.00;;;1.40;;
75554;SDS011;66087;53.126;17.960;2023-03-14T10:08:54;4.70;;;1.20;;
75554;SDS011;66087;53.126;17.960;2023-03-14T10:11:23;3.40;;;1.20;;
75554;SDS011;66087;53.126;17.960;2023-03-14T10:14:11;4.70;;;1.40;;
75554;SDS011;66087;53.126;17.960;2023-03-14T10:16:40;4.80;;;1.40;;
75554;SDS011;66087;53.126;17.960;2023-03-14T10:19:11;3.70;;;1.40;;
75554;SDS011;66087;53.126;17.960;2023-03-14T10:21:41;5.10;;;1.80;;
75554;SDS011;66087;53.126;17.960;2023-03-14T10:26:53;4.00;;;1.00;;
75554;SDS011;66087;53.126;17.960;2023-03-14T10:29:29;5.80;;;1.40;;
75554;SDS011;66087;53.126;17.960;2023-03-14T10:31:59;4.20;;;1.50;;
75554;SDS011;66087;53.126;17.960;2023-03-14T10:34:30;5.70;;;2.50;;
75554;SDS011;66087;53.126;17.960;2023-03-14T10:37:04;4.10;;;1.20;;
75554;SDS011;66087;53.126;17.960;2023-03-14T10:39:53;4.40;;;1.80;;
75554;SDS011;66087;53.126;17.960;2023-03-14T10:42:25;4.90;;;1.40;;
75554;SDS011;66087;53.126;17.960;2023-03-14T10:44:57;4.00;;;1.50;;
75554;SDS011;66087;53.126;17.960;2023-03-14T10:47:27;8.10;;;2.10;;
75554;SDS011;66087;53.126;17.960;2023-03-14T10:49:55;4.10;;;1.50;;
75554;SDS011;66087;53.126;17.960;2023-03-14T10:52:25;5.00;;;1.70;;
75554;SDS011;66087;53.126;17.960;2023-03-14T10:54:57;6.00;;;1.60;;
75554;SDS011;66087;53.126;17.960;2023-03-14T10:57:27;5.70;;;2.10;;
75554;SDS011;66087;53.126;17.960;2023-03-14T10:59:55;5.60;;;2.00;;
75554;SDS011;66087;53.126;17.960;2023-03-14T11:05:24;4.80;;;1.40;;
75554;SDS011;66087;53.126;17.960;2023-03-14T11:08:01;5.40;;;2.20;;
75554;SDS011;66087;53.126;17.960;2023-03-14T11:10:35;3.60;;;1.80;;
75554;SDS011;66087;53.126;17.960;2023-03-14T11:19:00;4.50;;;1.30;;
75554;SDS011;66087;53.126;17.960;2023-03-14T11:21:51;2.90;;;1.00;;
75554;SDS011;66087;53.126;17.960;2023-03-14T11:24:31;5.70;;;1.90;;
75554;SDS011;66087;53.126;17.960;2023-03-14T11:30:18;3.30;;;1.20;;
75554;SDS011;66087;53.126;17.960;2023-03-14T11:32:56;6.50;;;1.60;;
75554;SDS011;66087;53.126;17.960;2023-03-14T11:35:37;3.80;;;1.40;;
75554;SDS011;66087;53.126;17.960;2023-03-14T11:38:13;3.60;;;1.30;;
75554;SDS011;66087;53.126;17.960;2023-03-14T11:40:50;4.90;;;1.20;;
75554;SDS011;66087;53.126;17.960;2023-03-14T11:43:30;4.70;;;1.70;;
75554;SDS011;66087;53.126;17.960;2023-03-14T11:46:05;4.20;;;1.20;;
75554;SDS011;66087;53.126;17.960;2023-03-14T11:48:38;4.10;;;1.20;;
75554;SDS011;66087;53.126;17.960;2023-03-14T11:51:12;7.00;;;3.10;;
75554;SDS011;66087;53.126;17.960;2023-03-14T11:54:11;9.90;;;3.40;;
75554;SDS011;66087;53.126;17.960;2023-03-14T11:56:48;4.00;;;1.30;;
75554;SDS011;66087;53.126;17.960;2023-03-14T11:59:21;7.00;;;2.20;;
75554;SDS011;66087;53.126;17.960;2023-03-14T12:01:56;6.40;;;2.10;;
75554;SDS011;66087;53.126;17.960;2023-03-14T12:07:17;5.20;;;1.80;;
75554;SDS011;66087;53.126;17.960;2023-03-14T12:09:47;10.70;;;4.70;;
75554;SDS011;66087;53.126;17.960;2023-03-14T12:12:18;9.60;;;3.70;;
75554;SDS011;66087;53.126;17.960;2023-03-14T12:14:52;10.90;;;4.10;;
75554;SDS011;66087;53.126;17.960;2023-03-14T12:17:27;4.40;;;1.30;;
75554;SDS011;66087;53.126;17.960;2023-03-14T12:20:15;7.90;;;2.50;;
75554;SDS011;66087;53.126;17.960;2023-03-14T12:22:47;5.70;;;1.50;;
75554;SDS011;66087;53.126;17.960;2023-03-14T12:25:19;9.10;;;3.40;;
75554;SDS011;66087;53.126;17.960;2023-03-14T12:28:16;8.40;;;2.80;;
75554;SDS011;66087;53.126;17.960;2023-03-14T12:30:46;7.60;;;2.70;;
75554;SDS011;66087;53.126;17.960;2023-03-14T12:33:20;6.90;;;2.60;;
75554;SDS011;66087;53.126;17.960;2023-03-14T12:35:59;7.10;;;2.60;;
75554;SDS011;66087;53.126;17.960;2023-03-14T12:38:58;6.70;;;2.40;;
75554;SDS011;66087;53.126;17.960;2023-03-14T12:46:58;10.10;;;3.70;;
75554;SDS011;66087;53.126;17.960;2023-03-14T12:49:30;7.20;;;2.20;;
75554;SDS011;66087;53.126;17.960;2023-03-14T12:51:58;9.00;;;4.00;;
75554;SDS011;66087;53.126;17.960;2023-03-14T12:54:37;12.00;;;3.60;;
75554;SDS011;66087;53.126;17.960;2023-03-14T12:57:26;7.00;;;3.30;;
75554;SDS011;66087;53.126;17.960;2023-03-14T12:59:59;6.10;;;2.50;;
75554;SDS011;66087;53.126;17.960;2023-03-14T13:02:37;7.90;;;2.90;;
75554;SDS011;66087;53.126;17.960;2023-03-14T13:05:10;9.90;;;4.10;;
75554;SDS011;66087;53.126;17.960;2023-03-14T13:10:30;5.30;;;2.50;;
75554;SDS011;66087;53.126;17.960;2023-03-14T13:13:11;7.80;;;3.40;;
75554;SDS011;66087;53.126;17.960;2023-03-14T13:15:47;6.10;;;2.00;;
75554;SDS011;66087;53.126;17.960;2023-03-14T13:21:12;5.00;;;2.00;;
75554;SDS011;66087;53.126;17.960;2023-03-14T13:31:48;5.10;;;2.00;;
75554;SDS011;66087;53.126;17.960;2023-03-14T13:34:17;8.20;;;3.80;;
75554;SDS011;66087;53.126;17.960;2023-03-14T13:36:46;6.40;;;1.90;;
75554;SDS011;66087;53.126;17.960;2023-03-14T13:39:17;5.60;;;2.40;;
75554;SDS011;66087;53.126;17.960;2023-03-14T13:41:45;6.40;;;2.70;;
75554;SDS011;66087;53.126;17.960;2023-03-14T13:44:13;5.70;;;2.50;;
75554;SDS011;66087;53.126;17.960;2023-03-14T13:46:43;5.90;;;2.30;;
75554;SDS011;66087;53.126;17.960;2023-03-14T13:49:11;10.60;;;4.60;;
75554;SDS011;66087;53.126;17.960;2023-03-14T13:51:42;9.80;;;3.70;;
75554;SDS011;66087;53.126;17.960;2023-03-14T13:54:13;17.40;;;8.80;;
75554;SDS011;66087;53.126;17.960;2023-03-14T13:56:42;10.20;;;4.80;;
75554;SDS011;66087;53.126;17.960;2023-03-14T14:01:49;11.30;;;6.00;;
75554;SDS011;66087;53.126;17.960;2023-03-14T14:04:18;10.90;;;5.70;;
75554;SDS011;66087;53.126;17.960;2023-03-14T14:06:50;8.20;;;3.50;;
75554;SDS011;66087;53.126;17.960;2023-03-14T14:09:22;20.00;;;8.80;;
75554;SDS011;66087;53.126;17.960;2023-03-14T14:11:57;10.90;;;4.60;;
75554;SDS011;66087;53.126;17.960;2023-03-14T14:14:36;18.10;;;7.60;;
75554;SDS011;66087;53.126;17.960;2023-03-14T14:17:11;18.40;;;7.30;;
75554;SDS011;66087;53.126;17.960;2023-03-14T14:19:41;12.50;;;5.90;;
75554;SDS011;66087;53.126;17.960;2023-03-14T14:22:12;7.50;;;3.20;;
75554;SDS011;66087;53.126;17.960;2023-03-14T14:24:39;12.30;;;5.40;;
75554;SDS011;66087;53.126;17.960;2023-03-14T14:27:10;8.30;;;4.00;;
75554;SDS011;66087;53.126;17.960;2023-03-14T14:32:36;7.00;;;2.70;;
75554;SDS011;66087;53.126;17.960;2023-03-14T14:35:05;10.30;;;5.40;;
75554;SDS011;66087;53.126;17.960;2023-03-14T14:37:34;8.50;;;4.40;;
75554;SDS011;66087;53.126;17.960;2023-03-14T14:40:08;8.30;;;3.90;;
75554;SDS011;66087;53.126;17.960;2023-03-14T14:42:42;13.00;;;6.40;;
75554;SDS011;66087;53.126;17.960;2023-03-14T14:45:14;10.10;;;5.30;;
75554;SDS011;66087;53.126;17.960;2023-03-14T14:48:06;11.20;;;5.20;;
75554;SDS011;66087;53.126;17.960;2023-03-14T14:50:38;9.10;;;4.40;;
75554;SDS011;66087;53.126;17.960;2023-03-14T14:55:56;14.20;;;6.90;;
75554;SDS011;66087;53.126;17.960;2023-03-14T14:58:28;17.20;;;7.20;;
75554;SDS011;66087;53.126;17.960;2023-03-14T15:01:03;13.90;;;5.60;;
75554;SDS011;66087;53.126;17.960;2023-03-14T15:03:33;11.10;;;4.40;;
75554;SDS011;66087;53.126;17.960;2023-03-14T15:06:02;5.10;;;2.00;;
75554;SDS011;66087;53.126;17.960;2023-03-14T15:08:29;9.10;;;2.60;;
75554;SDS011;66087;53.126;17.960;2023-03-14T15:10:56;4.10;;;1.60;;
75554;SDS011;66087;53.126;17.960;2023-03-14T15:13:24;13.10;;;4.00;;
75554;SDS011;66087;53.126;17.960;2023-03-14T15:15:50;11.30;;;4.50;;
75554;SDS011;66087;53.126;17.960;2023-03-14T15:18:22;11.10;;;4.20;;
75554;SDS011;66087;53.126;17.960;2023-03-14T15:20:51;6.40;;;2.00;;
75554;SDS011;66087;53.126;17.960;2023-03-14T15:23:19;5.40;;;1.50;;
75554;SDS011;66087;53.126;17.960;2023-03-14T15:25:47;10.10;;;3.10;;
75554;SDS011;66087;53.126;17.960;2023-03-14T15:28:17;7.90;;;3.40;;
75554;SDS011;66087;53.126;17.960;2023-03-14T15:30:49;13.50;;;5.00;;
75554;SDS011;66087;53.126;17.960;2023-03-14T15:33:17;9.10;;;3.60;;
75554;SDS011;66087;53.126;17.960;2023-03-14T15:35:44;15.00;;;4.70;;
75554;SDS011;66087;53.126;17.960;2023-03-14T15:38:12;6.60;;;2.40;;
75554;SDS011;66087;53.126;17.960;2023-03-14T15:40:41;9.90;;;4.20;;
75554;SDS011;66087;53.126;17.960;2023-03-14T15:43:08;6.10;;;1.80;;
75554;SDS011;66087;53.126;17.960;2023-03-14T15:45:36;12.10;;;3.90;;